createdAt,value
2023-05-24T00:00:50.753Z,17.34
2023-05-24T00:02:16.054Z,17.32
2023-05-24T00:04:00.330Z,17.42
2023-05-24T00:05:32.780Z,17.43
2023-05-24T00:06:54.090Z,17.44
2023-05-24T00:08:16.608Z,17.43
2023-05-24T00:09:48.360Z,17.41
2023-05-24T00:11:16.670Z,17.38
2023-05-24T00:12:36.926Z,17.35
2023-05-24T00:13:59.465Z,17.32
2023-05-24T00:15:31.540Z,17.30
2023-05-24T00:16:52.171Z,17.29
2023-05-24T00:18:24.153Z,17.28
2023-05-24T00:19:58.211Z,17.16
2023-05-24T00:21:30.224Z,17.27
2023-05-24T00:23:02.643Z,17.25
2023-05-24T00:24:22.857Z,17.28
2023-05-24T00:25:45.796Z,17.28
2023-05-24T00:27:20.348Z,17.27
2023-05-24T00:28:40.613Z,17.25
2023-05-24T00:30:10.441Z,17.26
2023-05-24T00:31:42.302Z,17.27
2023-05-24T00:33:06.322Z,17.27
2023-05-24T00:34:29.473Z,17.24
2023-05-24T00:36:05.387Z,17.26
2023-05-24T00:37:26.943Z,17.26
2023-05-24T00:38:55.334Z,17.26
2023-05-24T00:40:34.442Z,17.27
2023-05-24T00:42:11.438Z,17.30
2023-05-24T00:43:53.517Z,17.28
2023-05-24T00:45:13.823Z,17.25
2023-05-24T00:46:34.952Z,17.23
2023-05-24T00:48:06.704Z,17.20
2023-05-24T00:49:43.714Z,17.16
2023-05-24T00:51:15.652Z,17.09
2023-05-24T00:52:39.098Z,16.99
2023-05-24T00:54:19.214Z,16.98
2023-05-24T00:56:02.758Z,16.94
2023-05-24T00:57:24.551Z,16.91
2023-05-24T00:58:45.286Z,16.88
2023-05-24T01:00:24.225Z,16.86
2023-05-24T01:02:04.123Z,16.83
2023-05-24T01:03:36.942Z,16.81
2023-05-24T01:05:12.772Z,16.80
2023-05-24T01:06:35.587Z,16.81
2023-05-24T01:08:18.449Z,16.82
2023-05-24T01:09:57.898Z,16.82
2023-05-24T01:11:41.548Z,16.78
2023-05-24T01:13:13.455Z,16.73
2023-05-24T01:14:36.133Z,16.70
2023-05-24T01:16:10.129Z,16.68
2023-05-24T01:17:45.541Z,16.65
2023-05-24T01:19:38.408Z,16.63
2023-05-24T01:21:22.634Z,16.61
2023-05-24T01:23:14.783Z,16.57
2023-05-24T01:24:37.731Z,16.51
2023-05-24T01:26:21.501Z,16.48
2023-05-24T01:28:05.609Z,16.43
2023-05-24T01:29:40.104Z,16.40
2023-05-24T01:31:12.733Z,16.35
2023-05-24T01:32:40.544Z,16.30
2023-05-24T01:34:08.370Z,16.28
2023-05-24T01:35:42.554Z,16.25
2023-05-24T01:37:26.220Z,16.22
2023-05-24T01:38:58.129Z,16.19
2023-05-24T01:40:42.174Z,16.17
2023-05-24T01:42:14.898Z,16.13
2023-05-24T01:43:58.872Z,16.10
2023-05-24T01:45:21.775Z,16.09
2023-05-24T01:47:05.325Z,16.08
2023-05-24T01:48:37.862Z,16.07
2023-05-24T01:50:10.084Z,16.08
2023-05-24T01:51:37.712Z,16.08
2023-05-24T01:53:05.602Z,16.05
2023-05-24T01:54:28.192Z,16.03
2023-05-24T01:56:02.332Z,15.99
2023-05-24T01:57:25.120Z,15.97
2023-05-24T01:59:00.219Z,15.93
2023-05-24T02:00:32.358Z,15.91
2023-05-24T02:02:16.375Z,15.88
2023-05-24T02:04:08.873Z,15.85
2023-05-24T02:05:48.680Z,15.79
2023-05-24T02:07:23.395Z,15.67
2023-05-24T02:09:06.966Z,15.70
2023-05-24T02:10:46.917Z,15.66
2023-05-24T02:12:18.988Z,15.61
2023-05-24T02:13:39.478Z,15.59
2023-05-24T02:15:31.878Z,15.56
2023-05-24T02:17:15.511Z,15.53
2023-05-24T02:18:45.994Z,15.52
2023-05-24T02:20:20.492Z,15.49
2023-05-24T02:22:04.186Z,15.47
2023-05-24T02:23:48.421Z,15.43
2023-05-24T02:25:20.830Z,15.41
2023-05-24T02:27:04.448Z,15.38
2023-05-24T02:28:29.324Z,15.35
2023-05-24T02:30:12.620Z,15.32
2023-05-24T02:31:56.406Z,15.30
2023-05-24T02:33:30.398Z,15.29
2023-05-24T02:34:58.624Z,15.27
2023-05-24T02:36:38.166Z,15.25
2023-05-24T02:38:01.868Z,15.24
2023-05-24T02:39:45.312Z,15.22
2023-05-24T02:41:17.110Z,15.18
2023-05-24T02:42:51.325Z,15.13
2023-05-24T02:44:11.939Z,15.11
2023-05-24T02:45:51.865Z,15.10
2023-05-24T02:47:33.088Z,15.09
2023-05-24T02:49:25.265Z,15.06
2023-05-24T02:51:11.135Z,15.00
2023-05-24T02:52:45.542Z,14.93
2023-05-24T02:54:34.222Z,14.92
2023-05-24T02:56:26.930Z,14.89
2023-05-24T02:57:59.239Z,14.85
2023-05-24T02:59:25.523Z,14.84
2023-05-24T03:01:00.845Z,14.78
2023-05-24T03:02:41.775Z,14.84
2023-05-24T03:04:25.628Z,14.82
2023-05-24T03:06:09.265Z,14.79
2023-05-24T03:07:50.584Z,14.75
2023-05-24T03:09:15.598Z,14.74
2023-05-24T03:10:50.284Z,14.73
2023-05-24T03:12:22.285Z,14.76
2023-05-24T03:14:10.401Z,14.76
2023-05-24T03:15:41.097Z,14.75
2023-05-24T03:17:13.046Z,14.75
2023-05-24T03:18:43.612Z,14.73
2023-05-24T03:20:20.699Z,14.70
2023-05-24T03:22:04.524Z,14.61
2023-05-24T03:23:32.552Z,14.68
2023-05-24T03:25:19.496Z,14.68
2023-05-24T03:26:52.249Z,14.67
2023-05-24T03:28:36.340Z,14.67
2023-05-24T03:30:20.574Z,14.65
2023-05-24T03:31:49.292Z,14.65
2023-05-24T03:33:21.729Z,14.65
2023-05-24T03:35:05.573Z,14.64
2023-05-24T03:36:49.588Z,14.66
2023-05-24T03:38:38.586Z,14.67
2023-05-24T03:40:06.244Z,14.67
2023-05-24T03:41:39.363Z,14.68
2023-05-24T03:43:32.469Z,14.71
2023-05-24T03:44:58.790Z,14.71
2023-05-24T03:46:43.441Z,14.72
2023-05-24T03:48:18.080Z,14.71
2023-05-24T03:49:50.404Z,14.71
2023-05-24T03:51:28.673Z,14.70
2023-05-24T03:53:02.914Z,14.71
2023-05-24T03:54:42.448Z,14.72
2023-05-24T03:56:14.043Z,14.78
2023-05-24T03:57:48.555Z,14.81
2023-05-24T03:59:22.669Z,14.81
2023-05-24T04:01:29.134Z,14.83
2023-05-24T04:03:12.484Z,14.82
2023-05-24T04:04:48.134Z,14.83
2023-05-24T04:06:32.084Z,14.85
2023-05-24T04:08:15.830Z,14.86
2023-05-24T04:09:59.569Z,14.89
2023-05-24T04:11:31.839Z,14.92
2023-05-24T04:13:03.548Z,14.94
2023-05-24T04:14:30.847Z,14.93
2023-05-24T04:15:54.064Z,14.95
2023-05-24T04:17:32.249Z,14.99
2023-05-24T04:19:06.405Z,15.03
2023-05-24T04:20:46.043Z,15.03
2023-05-24T04:22:26.175Z,15.06
2023-05-24T04:24:00.815Z,15.03
2023-05-24T04:25:35.218Z,15.07
2023-05-24T04:27:09.459Z,15.07
2023-05-24T04:28:41.797Z,15.08
2023-05-24T04:30:13.919Z,15.11
2023-05-24T04:31:48.623Z,15.12
2023-05-24T04:33:23.037Z,15.14
2023-05-24T04:34:55.018Z,15.14
2023-05-24T04:36:39.945Z,15.16
2023-05-24T04:38:23.719Z,15.16
2023-05-24T04:39:58.257Z,15.18
2023-05-24T04:41:23.162Z,15.20
2023-05-24T04:42:48.611Z,15.20
2023-05-24T04:44:09.197Z,15.21
2023-05-24T04:45:33.106Z,15.24
2023-05-24T04:46:57.225Z,15.27
2023-05-24T04:48:29.716Z,15.34
2023-05-24T04:50:01.836Z,15.39
2023-05-24T04:51:41.638Z,15.42
2023-05-24T04:53:21.081Z,15.49
2023-05-24T04:54:43.856Z,15.55
2023-05-24T04:56:27.945Z,15.58
2023-05-24T04:57:48.663Z,15.61
2023-05-24T04:59:14.560Z,15.62
2023-05-24T05:00:58.393Z,15.66
2023-05-24T05:02:32.793Z,15.69
2023-05-24T05:03:53.686Z,15.70
2023-05-24T05:05:25.584Z,15.75
2023-05-24T05:06:48.629Z,15.80
2023-05-24T05:08:21.070Z,15.84
2023-05-24T05:09:53.506Z,15.86
2023-05-24T05:11:14.235Z,15.89
2023-05-24T05:12:35.023Z,15.91
2023-05-24T05:13:57.280Z,15.96
2023-05-24T05:15:32.500Z,16.02
2023-05-24T05:17:16.310Z,16.07
2023-05-24T05:18:44.486Z,16.13
2023-05-24T05:20:07.209Z,16.23
2023-05-24T05:21:27.725Z,16.33
2023-05-24T05:23:11.358Z,16.44
2023-05-24T05:24:31.634Z,16.52
2023-05-24T05:26:06.065Z,16.51
2023-05-24T05:27:28.613Z,16.66
2023-05-24T05:29:03.160Z,16.75
2023-05-24T05:30:35.621Z,16.84
2023-05-24T05:31:58.194Z,16.92
2023-05-24T05:33:30.244Z,17.00
2023-05-24T05:34:50.885Z,17.03
2023-05-24T05:36:22.944Z,17.04
2023-05-24T05:37:51.109Z,17.06
2023-05-24T05:39:11.590Z,17.03
2023-05-24T05:40:39.694Z,17.05
2023-05-24T05:42:02.511Z,17.05
2023-05-24T05:43:25.636Z,17.05
2023-05-24T05:44:46.486Z,17.06
2023-05-24T05:46:10.454Z,17.11
2023-05-24T05:47:42.805Z,17.13
2023-05-24T05:49:22.866Z,17.15
2023-05-24T05:50:50.640Z,17.17
2023-05-24T05:52:34.336Z,17.13
2023-05-24T05:54:08.145Z,17.09
2023-05-24T05:55:28.653Z,17.08
2023-05-24T05:56:51.621Z,17.12
2023-05-24T05:58:11.929Z,17.18
2023-05-24T05:59:35.434Z,17.22
2023-05-24T06:01:03.223Z,17.26
2023-05-24T06:02:35.295Z,17.27
2023-05-24T06:04:02.810Z,17.27
2023-05-24T06:05:23.467Z,17.23
2023-05-24T06:06:56.247Z,17.25
2023-05-24T06:08:19.261Z,17.29
2023-05-24T06:09:47.259Z,17.32
2023-05-24T06:11:09.930Z,17.39
2023-05-24T06:12:40.281Z,17.51
2023-05-24T06:14:25.477Z,17.64
2023-05-24T06:15:55.914Z,17.71
2023-05-24T06:17:18.620Z,17.70
2023-05-24T06:18:45.056Z,17.73
2023-05-24T06:20:14.936Z,17.84
2023-05-24T06:21:49.493Z,17.94
2023-05-24T06:23:09.863Z,18.01
2023-05-24T06:24:43.134Z,18.04
2023-05-24T06:26:22.567Z,17.97
2023-05-24T06:27:54.648Z,17.89
2023-05-24T06:29:24.418Z,17.75
2023-05-24T06:30:54.699Z,17.71
2023-05-24T06:32:22.272Z,17.74
2023-05-24T06:33:52.443Z,17.78
2023-05-24T06:35:34.200Z,17.80
2023-05-24T06:37:09.767Z,17.96
2023-05-24T06:38:37.376Z,18.09
2023-05-24T06:40:09.920Z,18.19
2023-05-24T06:41:38.372Z,18.25
2023-05-24T06:43:05.782Z,18.29
2023-05-24T06:44:43.113Z,18.31
2023-05-24T06:46:08.016Z,18.37
2023-05-24T06:47:30.816Z,18.45
2023-05-24T06:48:51.572Z,18.52
2023-05-24T06:50:14.421Z,18.55
2023-05-24T06:51:37.783Z,18.57
2023-05-24T06:53:02.157Z,18.60
2023-05-24T06:54:36.920Z,18.57
2023-05-24T06:56:04.918Z,18.61
2023-05-24T06:57:26.157Z,18.64
2023-05-24T06:59:09.893Z,18.73
2023-05-24T07:00:45.464Z,18.83
2023-05-24T07:02:15.712Z,18.87
2023-05-24T07:04:07.335Z,18.96
2023-05-24T07:05:41.650Z,19.04
2023-05-24T07:07:13.817Z,19.07
2023-05-24T07:08:48.510Z,19.10
2023-05-24T07:10:08.339Z,19.10
2023-05-24T07:11:40.591Z,19.07
2023-05-24T07:13:12.841Z,19.01
2023-05-24T07:14:35.588Z,19.01
2023-05-24T07:16:09.419Z,19.00
2023-05-24T07:17:53.118Z,18.98
2023-05-24T07:19:40.182Z,18.91
2023-05-24T07:21:14.409Z,18.78
2023-05-24T07:22:46.200Z,18.70
2023-05-24T07:24:08.394Z,18.65
2023-05-24T07:25:31.328Z,18.58
2023-05-24T07:26:53.024Z,18.52
2023-05-24T07:28:37.227Z,18.43
2023-05-24T07:30:31.578Z,18.42
2023-05-24T07:31:55.216Z,18.38
2023-05-24T07:33:28.576Z,18.41
2023-05-24T07:35:13.465Z,18.44
2023-05-24T07:36:36.461Z,18.47
2023-05-24T07:38:08.278Z,18.52
2023-05-24T07:39:28.471Z,18.57
2023-05-24T07:40:51.387Z,18.57
2023-05-24T07:42:23.230Z,18.57
2023-05-24T07:43:46.301Z,18.59
2023-05-24T07:45:20.438Z,18.56
2023-05-24T07:46:54.965Z,18.57
2023-05-24T07:48:39.177Z,18.68
2023-05-24T07:50:11.206Z,18.86
2023-05-24T07:51:45.419Z,18.87
2023-05-24T07:53:19.551Z,18.87
2023-05-24T07:54:39.858Z,18.84
2023-05-24T07:56:09.604Z,18.91
2023-05-24T07:57:44.652Z,19.05
2023-05-24T07:59:04.619Z,19.03
2023-05-24T08:00:28.872Z,19.00
2023-05-24T08:02:00.735Z,19.09
2023-05-24T08:03:36.277Z,19.25
2023-05-24T08:05:08.987Z,19.29
2023-05-24T08:06:31.387Z,19.25
2023-05-24T08:08:03.272Z,19.17
2023-05-24T08:09:38.753Z,19.08
2023-05-24T08:11:01.359Z,19.08
2023-05-24T08:12:33.354Z,19.03
2023-05-24T08:14:17.038Z,18.96
2023-05-24T08:15:39.882Z,18.89
2023-05-24T08:17:11.931Z,18.98
2023-05-24T08:18:32.514Z,19.07
2023-05-24T08:20:05.704Z,19.04
2023-05-24T08:21:28.513Z,18.89
2023-05-24T08:22:59.031Z,18.94
2023-05-24T08:24:19.425Z,18.88
2023-05-24T08:26:04.293Z,18.74
2023-05-24T08:27:36.504Z,18.69
2023-05-24T08:29:06.251Z,18.69
2023-05-24T08:30:26.822Z,18.69
2023-05-24T08:32:10.938Z,18.67
2023-05-24T08:33:56.859Z,18.65
2023-05-24T08:35:22.243Z,18.57
2023-05-24T08:36:43.251Z,18.49
2023-05-24T08:38:15.136Z,18.47
2023-05-24T08:39:47.768Z,18.45
2023-05-24T08:41:07.878Z,18.39
2023-05-24T08:42:35.776Z,18.38
2023-05-24T08:43:56.406Z,18.36
2023-05-24T08:45:23.841Z,18.55
2023-05-24T08:46:51.864Z,18.68
2023-05-24T08:48:17.471Z,18.73
2023-05-24T08:49:51.835Z,18.79
2023-05-24T08:51:26.677Z,18.90
2023-05-24T08:53:16.526Z,18.99
2023-05-24T08:54:39.300Z,18.96
2023-05-24T08:56:02.214Z,18.97
2023-05-24T08:57:30.014Z,18.88
2023-05-24T08:58:50.661Z,18.95
2023-05-24T09:00:30.329Z,19.05
2023-05-24T09:01:51.283Z,19.21
2023-05-24T09:03:12.319Z,19.31
2023-05-24T09:04:44.486Z,19.40
2023-05-24T09:06:28.252Z,19.36
2023-05-24T09:07:48.838Z,19.37
2023-05-24T09:09:24.401Z,19.30
2023-05-24T09:10:54.996Z,19.24
2023-05-24T09:12:36.722Z,19.21
2023-05-24T09:14:12.910Z,19.19
2023-05-24T09:15:56.580Z,19.14
2023-05-24T09:17:19.427Z,19.17
2023-05-24T09:18:52.300Z,19.17
2023-05-24T09:20:13.079Z,19.24
2023-05-24T09:23:37.021Z,19.29
2023-05-24T09:25:22.561Z,19.13
2023-05-24T09:26:52.067Z,19.16
2023-05-24T09:28:15.847Z,19.16
2023-05-24T09:29:51.697Z,19.27
2023-05-24T09:31:23.520Z,19.37
2023-05-24T09:32:50.193Z,19.45
2023-05-24T09:34:19.682Z,19.52
2023-05-24T09:35:53.458Z,19.56
2023-05-24T09:37:26.927Z,19.59
2023-05-24T09:39:03.599Z,19.64
2023-05-24T09:40:25.673Z,19.72
2023-05-24T09:41:54.650Z,19.76
2023-05-24T09:43:41.812Z,19.81
2023-05-24T09:45:15.127Z,19.92
2023-05-24T09:46:38.595Z,19.90
2023-05-24T09:48:12.632Z,19.88
2023-05-24T09:49:36.824Z,19.95
2023-05-24T09:51:03.173Z,20.06
2023-05-24T09:52:36.680Z,20.15
2023-05-24T09:54:17.350Z,20.22
2023-05-24T09:55:53.402Z,20.22
2023-05-24T09:57:36.358Z,20.15
2023-05-24T09:59:02.545Z,20.14
2023-05-24T10:00:36.898Z,20.16
2023-05-24T10:02:12.380Z,20.14
2023-05-24T10:03:46.975Z,20.09
2023-05-24T10:05:20.699Z,20.07
2023-05-24T10:06:44.666Z,20.08
2023-05-24T10:08:21.501Z,20.14
2023-05-24T10:09:45.843Z,20.08
2023-05-24T10:11:14.799Z,20.10
2023-05-24T10:12:48.163Z,20.13
2023-05-24T10:14:09.895Z,20.14
2023-05-24T10:15:55.487Z,20.09
2023-05-24T10:17:28.049Z,20.02
2023-05-24T10:19:12.836Z,20.03
2023-05-24T10:20:40.144Z,20.07
2023-05-24T10:22:16.830Z,20.03
2023-05-24T10:23:38.524Z,20.04
2023-05-24T10:25:21.633Z,20.05
2023-05-24T10:26:56.025Z,19.97
2023-05-24T10:28:20.122Z,19.94
2023-05-24T10:30:12.188Z,19.91
2023-05-24T10:32:05.221Z,19.87
2023-05-24T10:33:46.388Z,19.70
2023-05-24T10:35:27.408Z,19.56
2023-05-24T10:37:01.587Z,19.51
2023-05-24T10:38:28.577Z,19.42
2023-05-24T10:40:14.038Z,19.32
2023-05-24T10:41:40.592Z,19.38
2023-05-24T10:43:16.809Z,19.46
2023-05-24T10:44:50.564Z,19.52
2023-05-24T10:46:30.856Z,19.75
2023-05-24T10:48:05.129Z,19.94
2023-05-24T10:49:50.895Z,20.12
2023-05-24T10:51:15.140Z,20.32
2023-05-24T10:52:48.800Z,20.64
2023-05-24T10:54:17.964Z,20.79
2023-05-24T10:55:52.573Z,20.92
2023-05-24T10:57:25.794Z,21.05
2023-05-24T10:58:59.623Z,21.07
2023-05-24T11:00:36.087Z,20.87
2023-05-24T11:02:08.618Z,20.72
2023-05-24T11:03:33.101Z,20.56
2023-05-24T11:05:06.773Z,20.61
2023-05-24T11:06:41.311Z,20.75
2023-05-24T11:08:14.728Z,20.97
2023-05-24T11:10:02.995Z,21.14
2023-05-24T11:11:37.050Z,21.37
2023-05-24T11:13:10.885Z,21.42
2023-05-24T11:14:52.329Z,21.17
2023-05-24T11:16:27.588Z,20.79
2023-05-24T11:18:13.108Z,20.43
2023-05-24T11:19:35.280Z,20.20
2023-05-24T11:20:59.802Z,20.24
2023-05-24T11:22:33.308Z,20.30
2023-05-24T11:24:00.198Z,20.23
2023-05-24T11:25:32.343Z,20.09
2023-05-24T11:27:06.195Z,19.95
2023-05-24T11:28:37.327Z,19.92
2023-05-24T11:30:10.907Z,19.87
2023-05-24T11:31:46.864Z,19.98
2023-05-24T11:33:22.918Z,20.28
2023-05-24T11:35:04.157Z,20.67
2023-05-24T11:36:40.049Z,20.83
2023-05-24T11:38:04.302Z,20.82
2023-05-24T11:39:30.615Z,20.75
2023-05-24T11:41:04.140Z,20.70
2023-05-24T11:42:37.605Z,20.75
2023-05-24T11:44:00.178Z,21.15
2023-05-24T11:45:35.704Z,21.45
2023-05-24T11:47:30.134Z,21.45
2023-05-24T11:49:06.059Z,21.28
2023-05-24T11:50:51.534Z,21.29
2023-05-24T11:52:15.980Z,21.30
2023-05-24T11:53:50.834Z,21.21
2023-05-24T11:55:16.622Z,21.10
2023-05-24T11:56:51.611Z,21.34
2023-05-24T11:58:27.252Z,21.66
2023-05-24T11:59:54.301Z,21.88
2023-05-24T12:01:16.375Z,21.83
2023-05-24T12:03:01.614Z,21.57
2023-05-24T12:04:31.427Z,21.27
2023-05-24T12:06:09.002Z,21.10
2023-05-24T12:07:48.828Z,20.83
2023-05-24T12:09:16.608Z,20.63
2023-05-24T12:10:43.311Z,20.69
2023-05-24T12:12:12.865Z,21.02
2023-05-24T12:13:46.736Z,21.19
2023-05-24T12:15:27.462Z,21.16
2023-05-24T12:17:07.842Z,21.02
2023-05-24T12:18:29.931Z,20.85
2023-05-24T12:20:03.603Z,20.60
2023-05-24T12:21:25.823Z,20.44
2023-05-24T12:22:47.508Z,20.43
2023-05-24T12:24:21.079Z,20.27
2023-05-24T12:25:54.505Z,20.12
2023-05-24T12:27:28.344Z,19.95
2023-05-24T12:29:02.008Z,19.75
2023-05-24T12:30:42.977Z,19.58
2023-05-24T12:32:13.913Z,19.47
2023-05-24T12:33:36.259Z,19.39
2023-05-24T12:35:09.913Z,19.34
2023-05-24T12:36:43.166Z,19.29
2023-05-24T12:38:05.252Z,19.23
2023-05-24T12:39:45.956Z,19.11
2023-05-24T12:41:17.387Z,18.95
2023-05-24T12:42:41.798Z,18.89
2023-05-24T12:44:03.390Z,18.90
2023-05-24T12:45:37.511Z,18.87
2023-05-24T12:47:23.436Z,18.75
2023-05-24T12:48:47.861Z,18.66
2023-05-24T12:50:12.905Z,18.61
2023-05-24T12:51:45.658Z,18.56
2023-05-24T12:53:29.421Z,18.48
2023-05-24T12:54:56.595Z,18.36
2023-05-24T12:56:32.675Z,18.31
2023-05-24T12:58:14.158Z,18.29
2023-05-24T12:59:48.329Z,18.28
2023-05-24T13:01:33.722Z,18.30
2023-05-24T13:03:00.227Z,18.38
2023-05-24T13:04:45.457Z,18.39
2023-05-24T13:06:09.513Z,18.26
2023-05-24T13:07:42.805Z,18.12
2023-05-24T13:09:12.107Z,18.01
2023-05-24T13:10:57.379Z,17.88
2023-05-24T13:12:27.675Z,17.82
2023-05-24T13:14:08.691Z,17.86
2023-05-24T13:15:34.960Z,17.89
2023-05-24T13:17:19.979Z,17.87
2023-05-24T13:19:05.175Z,17.88
2023-05-24T13:20:34.221Z,17.84
2023-05-24T13:22:08.002Z,17.76
2023-05-24T13:23:43.236Z,17.74
2023-05-24T13:25:15.138Z,17.69
2023-05-24T13:26:49.324Z,17.65
2023-05-24T13:28:35.608Z,17.68
2023-05-24T13:30:00.763Z,17.65
2023-05-24T13:31:37.938Z,17.66
2023-05-24T13:33:14.504Z,17.61
2023-05-24T13:34:39.385Z,17.54
2023-05-24T13:36:19.213Z,17.52
2023-05-24T13:37:52.641Z,17.50
2023-05-24T13:39:28.787Z,17.54
2023-05-24T13:41:03.062Z,17.60
2023-05-24T13:42:48.077Z,17.64
2023-05-24T13:44:22.059Z,17.63
2023-05-24T13:46:04.734Z,17.61
2023-05-24T13:47:39.472Z,17.68
2023-05-24T13:49:17.796Z,17.61
2023-05-24T13:50:51.404Z,17.60
2023-05-24T13:52:27.101Z,17.56
2023-05-24T13:54:11.953Z,17.45
2023-05-24T13:55:46.146Z,17.34
2023-05-24T13:57:19.451Z,17.27
2023-05-24T13:58:55.424Z,17.10
2023-05-24T14:00:28.526Z,17.23
2023-05-24T14:02:09.318Z,17.22
2023-05-24T14:03:43.165Z,17.26
2023-05-24T14:05:28.559Z,17.29
2023-05-24T14:07:18.537Z,17.32
2023-05-24T14:09:12.206Z,17.41
2023-05-24T14:10:48.123Z,17.58
2023-05-24T14:12:21.688Z,17.69
2023-05-24T14:14:58.004Z,17.90
2023-05-24T14:15:53.683Z,18.18
2023-05-24T14:17:18.089Z,18.31
2023-05-24T14:18:51.566Z,18.32
2023-05-24T14:20:25.151Z,18.31
2023-05-24T14:21:58.605Z,18.39
2023-05-24T14:23:39.533Z,18.56
2023-05-24T14:25:13.190Z,18.52
2023-05-24T14:26:49.577Z,18.36
2023-05-24T14:28:13.724Z,18.34
2023-05-24T14:29:47.571Z,18.38
2023-05-24T14:31:23.299Z,18.46
2023-05-24T14:32:54.875Z,18.42
2023-05-24T14:34:24.007Z,18.35
2023-05-24T14:35:46.406Z,18.27
2023-05-24T14:37:13.212Z,18.10
2023-05-24T14:38:36.145Z,18.04
2023-05-24T14:40:01.116Z,17.92
2023-05-24T14:41:34.504Z,17.81
2023-05-24T14:42:56.367Z,17.75
2023-05-24T14:44:29.663Z,17.73
2023-05-24T14:45:59.183Z,17.66
2023-05-24T14:47:35.822Z,17.64
2023-05-24T14:49:17.368Z,17.61
2023-05-24T14:51:02.828Z,17.59
2023-05-24T14:52:27.196Z,17.55
2023-05-24T14:53:49.647Z,17.51
2023-05-24T14:55:25.514Z,17.48
2023-05-24T14:56:59.472Z,17.39
2023-05-24T14:58:23.201Z,17.33
2023-05-24T14:59:49.655Z,17.23
2023-05-24T15:01:13.578Z,17.16
2023-05-24T15:02:54.507Z,17.09
2023-05-24T15:04:24.202Z,17.03
2023-05-24T15:05:51.178Z,17.01
2023-05-24T15:07:37.078Z,16.95
2023-05-24T15:09:13.591Z,16.82
2023-05-24T15:10:46.783Z,16.69
2023-05-24T15:12:13.304Z,16.61
2023-05-24T15:13:38.421Z,16.55
2023-05-24T15:15:19.825Z,16.49
2023-05-24T15:16:53.721Z,16.48
2023-05-24T15:18:28.053Z,16.48
2023-05-24T15:20:05.028Z,16.43
2023-05-24T15:21:56.254Z,16.39
2023-05-24T15:23:29.843Z,16.40
2023-05-24T15:24:52.115Z,16.42
2023-05-24T15:26:14.109Z,16.44
2023-05-24T15:27:47.772Z,16.42
2023-05-24T15:29:21.208Z,16.37
2023-05-24T15:31:06.740Z,16.32
2023-05-24T15:32:42.809Z,16.34
2023-05-24T15:34:07.319Z,16.40
2023-05-24T15:35:31.829Z,16.46
2023-05-24T15:37:01.413Z,16.55
2023-05-24T15:38:42.413Z,16.58
2023-05-24T15:40:31.134Z,16.56
2023-05-24T15:42:11.661Z,16.55
2023-05-24T15:43:45.131Z,16.53
2023-05-24T15:45:30.278Z,16.48
2023-05-24T15:47:15.349Z,16.43
2023-05-24T15:48:44.842Z,16.40
2023-05-24T15:50:31.736Z,16.38
2023-05-24T15:52:03.638Z,16.37
2023-05-24T15:53:50.209Z,16.37
2023-05-24T15:55:35.000Z,16.37
2023-05-24T15:57:03.944Z,16.39
2023-05-24T15:58:49.165Z,16.36
2023-05-24T16:00:29.585Z,16.35
2023-05-24T16:02:10.375Z,16.33
2023-05-24T16:03:43.810Z,16.24
2023-05-24T16:05:21.063Z,16.19
2023-05-24T16:06:46.049Z,16.17
2023-05-24T16:08:19.599Z,16.15
2023-05-24T16:10:00.492Z,16.11
2023-05-24T16:11:30.302Z,16.08
2023-05-24T16:13:06.159Z,16.09
2023-05-24T16:14:28.143Z,16.11
2023-05-24T16:15:57.420Z,16.10
2023-05-24T16:17:27.017Z,16.07
2023-05-24T16:19:00.707Z,16.03
2023-05-24T16:20:36.678Z,16.05
2023-05-24T16:22:22.455Z,16.05
2023-05-24T16:23:55.970Z,16.05
2023-05-24T16:25:27.679Z,16.04
2023-05-24T16:26:52.229Z,16.02
2023-05-24T16:28:33.376Z,16.03
2023-05-24T16:29:58.207Z,16.04
2023-05-24T16:31:22.888Z,16.04
2023-05-24T16:32:57.239Z,16.05
2023-05-24T16:34:23.771Z,16.03
2023-05-24T16:36:00.475Z,16.01
2023-05-24T16:37:26.280Z,15.96
2023-05-24T16:38:59.878Z,15.92
2023-05-24T16:40:29.544Z,15.92
2023-05-24T16:41:54.103Z,15.90
2023-05-24T16:43:39.417Z,15.88
2023-05-24T16:45:34.158Z,15.87
2023-05-24T16:47:03.405Z,15.87
2023-05-24T16:48:43.240Z,15.83
2023-05-24T16:50:15.234Z,15.83
2023-05-24T16:51:56.484Z,15.79
2023-05-24T16:53:23.004Z,15.74
2023-05-24T16:54:56.955Z,15.74
2023-05-24T16:56:27.275Z,15.73
2023-05-24T16:58:03.520Z,15.72
2023-05-24T16:59:28.656Z,15.67
2023-05-24T17:01:09.635Z,15.64
2023-05-24T17:02:43.586Z,15.57
2023-05-24T17:04:24.699Z,15.46
2023-05-24T17:06:13.615Z,15.47
2023-05-24T17:08:00.900Z,15.45
2023-05-24T17:09:49.184Z,15.42
2023-05-24T17:11:29.542Z,15.40
2023-05-24T17:13:03.681Z,15.39
2023-05-24T17:14:48.981Z,15.32
2023-05-24T17:16:14.022Z,15.29
2023-05-24T17:17:59.331Z,15.26
2023-05-24T17:19:36.640Z,15.27
2023-05-24T17:21:13.065Z,15.26
2023-05-24T17:22:49.103Z,15.24
2023-05-24T17:24:34.778Z,15.20
2023-05-24T17:26:09.506Z,15.19
2023-05-24T17:27:44.075Z,15.18
2023-05-24T17:29:39.175Z,15.17
2023-05-24T17:31:12.823Z,15.16
2023-05-24T17:32:41.957Z,15.13
2023-05-24T17:34:04.628Z,15.16
2023-05-24T17:35:38.368Z,15.18
2023-05-24T17:37:00.203Z,15.18
2023-05-24T17:38:24.538Z,15.16
2023-05-24T17:39:54.060Z,15.15
2023-05-24T17:41:16.875Z,15.15
2023-05-24T17:42:50.899Z,15.09
2023-05-24T17:44:36.438Z,15.09
2023-05-24T17:46:06.309Z,15.03
2023-05-24T17:47:39.547Z,15.00
2023-05-24T17:49:17.227Z,15.01
2023-05-24T17:50:39.215Z,14.99
2023-05-24T17:52:16.066Z,15.01
2023-05-24T17:53:53.231Z,15.00
2023-05-24T17:55:27.456Z,14.99
2023-05-24T17:56:57.222Z,14.93
2023-05-24T17:58:44.083Z,14.86
2023-05-24T18:00:17.490Z,14.84
2023-05-24T18:01:46.496Z,14.83
2023-05-24T18:03:11.248Z,14.82
2023-05-24T18:04:56.797Z,14.78
2023-05-24T18:06:18.412Z,14.78
2023-05-24T18:07:52.203Z,14.74
2023-05-24T18:09:37.528Z,14.70
2023-05-24T18:11:12.595Z,14.66
2023-05-24T18:12:53.414Z,14.57
2023-05-24T18:14:38.408Z,14.57
2023-05-24T18:16:23.639Z,14.52
2023-05-24T18:18:01.672Z,14.50
2023-05-24T18:19:26.358Z,14.44
2023-05-24T18:20:51.996Z,14.45
2023-05-24T18:22:38.351Z,14.42
2023-05-24T18:24:12.924Z,14.39
2023-05-24T18:25:49.131Z,14.36
2023-05-24T18:27:11.677Z,14.32
2023-05-24T18:28:45.258Z,14.27
2023-05-24T18:30:19.492Z,14.21
2023-05-24T18:32:02.492Z,14.16
2023-05-24T18:33:49.555Z,14.12
2023-05-24T18:35:36.139Z,14.11
2023-05-24T18:37:09.845Z,14.10
2023-05-24T18:39:04.169Z,14.11
2023-05-24T18:40:46.015Z,14.09
2023-05-24T18:42:31.456Z,14.07
2023-05-24T18:44:11.885Z,14.04
2023-05-24T18:45:49.218Z,14.04
2023-05-24T18:47:35.553Z,14.02
2023-05-24T18:49:12.197Z,14.02
2023-05-24T18:50:36.561Z,14.04
2023-05-24T18:52:03.915Z,14.06
2023-05-24T18:53:27.222Z,14.01
2023-05-24T18:55:12.780Z,14.00
2023-05-24T18:56:46.245Z,14.00
2023-05-24T18:58:28.518Z,13.95
2023-05-24T19:00:02.578Z,13.93
2023-05-24T19:01:27.699Z,13.92
2023-05-24T19:03:13.346Z,13.86
2023-05-24T19:04:49.238Z,13.81
2023-05-24T19:06:26.638Z,13.81
2023-05-24T19:08:03.706Z,13.80
2023-05-24T19:09:49.137Z,13.78
2023-05-24T19:11:23.389Z,13.76
2023-05-24T19:12:45.606Z,13.75
2023-05-24T19:14:29.207Z,13.74
2023-05-24T19:16:02.861Z,13.71
2023-05-24T19:17:36.805Z,13.71
2023-05-24T19:19:31.194Z,13.66
2023-05-24T19:21:00.917Z,13.66
2023-05-24T19:22:27.623Z,13.65
2023-05-24T19:23:58.278Z,13.62
2023-05-24T19:25:44.192Z,13.49
2023-05-24T19:27:18.362Z,13.56
2023-05-24T19:28:54.210Z,13.54
2023-05-24T19:30:40.091Z,13.52
2023-05-24T19:32:04.780Z,13.52
2023-05-24T19:34:00.045Z,13.50
2023-05-24T19:35:35.194Z,13.48
2023-05-24T19:37:05.057Z,13.47
2023-05-24T19:38:29.627Z,13.45
2023-05-24T19:40:03.027Z,13.46
2023-05-24T19:41:39.469Z,13.45
2023-05-24T19:43:04.315Z,13.45
2023-05-24T19:44:29.797Z,13.45
2023-05-24T19:46:05.747Z,13.44
2023-05-24T19:47:32.429Z,13.42
2023-05-24T19:49:09.268Z,13.42
2023-05-24T19:50:47.953Z,13.43
2023-05-24T19:52:23.778Z,13.44
2023-05-24T19:54:09.268Z,13.44
2023-05-24T19:55:45.302Z,13.37
2023-05-24T19:57:19.373Z,13.45
2023-05-24T19:58:53.411Z,13.47
2023-05-24T20:00:17.531Z,13.49
2023-05-24T20:01:43.785Z,13.47
2023-05-24T20:03:36.290Z,13.48
2023-05-24T20:05:17.806Z,13.46
2023-05-24T20:06:44.949Z,13.44